createdAt,value
2023-10-31T00:02:16.485Z,5.00
2023-10-31T00:04:48.232Z,5.00
2023-10-31T00:07:20.002Z,3.60
2023-10-31T00:09:51.784Z,3.90
2023-10-31T00:12:23.388Z,3.50
2023-10-31T00:14:55.395Z,4.70
2023-10-31T00:17:27.039Z,4.00
2023-10-31T00:19:58.644Z,4.30
2023-10-31T00:22:30.291Z,4.90
2023-10-31T00:25:01.947Z,3.20
2023-10-31T00:27:33.872Z,4.10
2023-10-31T00:30:06.718Z,2.70
2023-10-31T00:32:38.405Z,1.80
2023-10-31T00:35:13.751Z,2.60
2023-10-31T00:37:45.524Z,2.70
2023-10-31T00:40:18.822Z,2.10
2023-10-31T00:42:50.498Z,1.80
2023-10-31T00:45:22.262Z,1.70
2023-10-31T00:47:54.025Z,1.60
2023-10-31T00:50:25.840Z,1.70
2023-10-31T00:52:57.444Z,2.90
2023-10-31T00:55:29.372Z,1.60
2023-10-31T00:58:01.372Z,1.70
2023-10-31T01:00:35.257Z,1.60
2023-10-31T01:03:07.045Z,1.50
2023-10-31T01:05:38.966Z,1.80
2023-10-31T01:08:10.773Z,1.80
2023-10-31T01:10:42.674Z,1.90
2023-10-31T01:13:14.574Z,1.40
2023-10-31T01:15:46.870Z,1.40
2023-10-31T01:18:18.627Z,1.40
2023-10-31T01:20:50.160Z,1.30
2023-10-31T01:23:21.685Z,1.70
2023-10-31T01:25:53.487Z,1.00
2023-10-31T01:28:25.119Z,1.10
2023-10-31T01:30:56.905Z,1.00
2023-10-31T01:33:28.900Z,1.10
2023-10-31T01:36:01.159Z,1.10
2023-10-31T01:38:33.233Z,1.20
2023-10-31T01:41:05.467Z,0.90
2023-10-31T01:43:38.863Z,1.40
2023-10-31T01:46:11.434Z,0.90
2023-10-31T01:48:44.426Z,0.90
2023-10-31T01:51:17.452Z,1.00
2023-10-31T01:53:49.562Z,0.90
2023-10-31T01:56:22.529Z,0.80
2023-10-31T01:58:55.201Z,1.20
2023-10-31T02:01:27.471Z,0.80
2023-10-31T02:03:59.769Z,1.30
2023-10-31T02:06:32.103Z,1.10
2023-10-31T02:09:04.154Z,1.30
2023-10-31T02:11:35.896Z,0.80
2023-10-31T02:14:07.985Z,0.70
2023-10-31T02:16:40.006Z,0.90
2023-10-31T02:19:12.665Z,1.00
2023-10-31T02:21:44.207Z,1.20
2023-10-31T02:24:15.778Z,1.00
2023-10-31T02:26:47.590Z,1.40
2023-10-31T02:29:19.362Z,1.10
2023-10-31T02:31:51.512Z,1.20
2023-10-31T02:34:23.252Z,1.00
2023-10-31T02:36:55.307Z,0.80
2023-10-31T02:39:26.906Z,0.90
2023-10-31T02:41:59.103Z,1.40
2023-10-31T02:44:30.630Z,1.20
2023-10-31T02:47:02.183Z,1.00
2023-10-31T02:49:33.782Z,1.00
2023-10-31T02:52:05.801Z,1.00
2023-10-31T02:54:37.659Z,1.00
2023-10-31T02:57:09.966Z,1.10
2023-10-31T02:59:41.900Z,1.00
2023-10-31T03:02:14.056Z,0.70
2023-10-31T03:04:45.949Z,0.90
2023-10-31T03:07:17.735Z,1.60
2023-10-31T03:09:49.431Z,1.00
2023-10-31T03:12:21.076Z,0.90
2023-10-31T03:14:52.737Z,1.00
2023-10-31T03:17:26.837Z,1.10
2023-10-31T03:19:58.658Z,1.00
2023-10-31T03:22:30.450Z,0.90
2023-10-31T03:25:02.374Z,0.90
2023-10-31T03:27:34.396Z,0.90
2023-10-31T03:30:07.659Z,1.10
2023-10-31T03:32:39.262Z,1.20
2023-10-31T03:35:11.965Z,1.00
2023-10-31T03:37:44.387Z,1.10
2023-10-31T03:40:17.106Z,1.00
2023-10-31T03:42:48.690Z,1.00
2023-10-31T03:45:20.365Z,1.30
2023-10-31T03:47:52.122Z,0.90
2023-10-31T03:50:23.712Z,1.20
2023-10-31T03:52:55.292Z,1.60
2023-10-31T03:55:27.421Z,1.60
2023-10-31T03:57:59.096Z,1.00
2023-10-31T04:00:30.723Z,1.20
2023-10-31T04:03:02.433Z,1.00
2023-10-31T04:05:34.276Z,1.20
2023-10-31T04:08:05.852Z,1.10
2023-10-31T04:10:37.751Z,1.30
2023-10-31T04:13:09.720Z,1.20
2023-10-31T04:15:41.252Z,1.10
2023-10-31T04:18:12.876Z,1.40
2023-10-31T04:20:45.300Z,1.30
2023-10-31T04:23:17.078Z,1.70
2023-10-31T04:25:48.731Z,1.20
2023-10-31T04:28:20.707Z,1.30
2023-10-31T04:30:52.682Z,1.10
2023-10-31T04:33:24.348Z,1.20
2023-10-31T04:35:56.032Z,1.00
2023-10-31T04:38:28.475Z,1.10
2023-10-31T04:41:00.446Z,1.20
2023-10-31T04:43:32.376Z,1.40
2023-10-31T04:46:04.286Z,1.40
2023-10-31T04:48:36.006Z,1.30
2023-10-31T04:51:08.457Z,1.20
2023-10-31T04:53:40.279Z,1.30
2023-10-31T04:56:17.609Z,1.10
2023-10-31T04:58:49.504Z,1.40
2023-10-31T05:01:21.436Z,1.10
2023-10-31T05:04:02.649Z,1.50
2023-10-31T05:06:39.352Z,1.00
2023-10-31T05:09:12.101Z,1.60
2023-10-31T05:11:44.622Z,1.20
2023-10-31T05:14:16.486Z,1.30
2023-10-31T05:16:48.385Z,1.00
2023-10-31T05:19:20.909Z,1.10
2023-10-31T05:21:52.785Z,1.00
2023-10-31T05:24:24.857Z,1.50
2023-10-31T05:26:57.629Z,1.20
2023-10-31T05:29:31.437Z,1.00
2023-10-31T05:32:03.902Z,1.20
2023-10-31T05:34:35.648Z,1.20
2023-10-31T05:37:08.100Z,1.00
2023-10-31T05:39:40.088Z,1.30
2023-10-31T05:42:12.463Z,0.80
2023-10-31T05:44:44.320Z,0.90
2023-10-31T05:47:16.240Z,1.20
2023-10-31T05:49:48.723Z,0.90
2023-10-31T05:52:20.518Z,1.10
2023-10-31T05:54:52.432Z,1.10
2023-10-31T05:57:24.150Z,1.20
2023-10-31T05:59:56.673Z,0.90
2023-10-31T06:02:28.442Z,1.10
2023-10-31T06:05:01.277Z,0.90
2023-10-31T06:10:06.102Z,0.80
2023-10-31T06:12:38.039Z,1.20
2023-10-31T06:15:11.689Z,0.80
2023-10-31T06:17:43.545Z,1.00
2023-10-31T06:20:16.273Z,1.50
2023-10-31T06:22:48.152Z,1.00
2023-10-31T06:25:20.033Z,1.50
2023-10-31T06:27:51.513Z,1.40
2023-10-31T06:30:29.097Z,1.00
2023-10-31T06:33:02.609Z,1.50
2023-10-31T06:35:34.639Z,1.20
2023-10-31T06:38:06.833Z,1.50
2023-10-31T06:40:39.264Z,1.10
2023-10-31T06:43:10.907Z,0.90
2023-10-31T06:45:42.838Z,1.00
2023-10-31T06:48:14.770Z,0.80
2023-10-31T06:50:47.044Z,1.60
2023-10-31T06:53:18.800Z,1.10
2023-10-31T06:55:51.362Z,0.90
2023-10-31T06:58:24.099Z,1.30
2023-10-31T07:00:56.102Z,1.10
2023-10-31T07:03:28.130Z,1.00
2023-10-31T07:06:00.456Z,1.30
2023-10-31T07:08:32.182Z,1.20
2023-10-31T07:11:04.549Z,1.10
2023-10-31T07:13:36.348Z,1.00
2023-10-31T07:16:10.116Z,1.60
2023-10-31T07:18:42.243Z,1.30
2023-10-31T07:21:14.393Z,1.60
2023-10-31T07:23:46.195Z,0.90
2023-10-31T07:26:18.839Z,1.00
2023-10-31T07:28:50.523Z,1.40
2023-10-31T07:31:22.620Z,1.40
2023-10-31T07:33:54.550Z,1.00
2023-10-31T07:36:26.783Z,0.80
2023-10-31T07:38:58.388Z,0.80
2023-10-31T07:41:30.161Z,0.90
2023-10-31T07:44:01.822Z,0.80
2023-10-31T07:46:33.664Z,1.00
2023-10-31T07:49:05.399Z,1.90
2023-10-31T07:51:37.513Z,1.60
2023-10-31T07:54:10.599Z,1.30
2023-10-31T07:56:43.559Z,1.00
2023-10-31T07:59:15.486Z,0.80
2023-10-31T08:01:52.018Z,1.10
2023-10-31T08:04:25.000Z,0.70
2023-10-31T08:06:57.049Z,0.90
2023-10-31T08:09:29.224Z,1.40
2023-10-31T08:12:01.181Z,1.20
2023-10-31T08:14:33.077Z,1.70
2023-10-31T08:17:05.363Z,1.00
2023-10-31T08:19:36.973Z,1.80
2023-10-31T08:22:09.541Z,1.60
2023-10-31T08:24:41.652Z,1.00
2023-10-31T08:27:13.869Z,1.30
2023-10-31T08:29:45.766Z,1.80
2023-10-31T08:32:17.567Z,1.10
2023-10-31T08:34:49.803Z,1.70
2023-10-31T08:37:21.752Z,1.30
2023-10-31T08:39:53.632Z,0.90
2023-10-31T08:42:25.673Z,1.10
2023-10-31T08:44:57.676Z,1.00
2023-10-31T08:47:30.271Z,1.20
2023-10-31T08:50:02.332Z,1.00
2023-10-31T08:52:34.324Z,1.20
2023-10-31T08:55:07.407Z,1.40
2023-10-31T08:57:39.291Z,1.20
2023-10-31T09:00:14.348Z,1.10
2023-10-31T09:02:46.063Z,1.30
2023-10-31T09:05:17.951Z,1.80
2023-10-31T09:07:50.330Z,1.30
2023-10-31T09:10:22.093Z,1.20
2023-10-31T09:12:54.572Z,1.50
2023-10-31T09:15:26.295Z,1.90
2023-10-31T09:17:58.434Z,1.20
2023-10-31T09:20:31.113Z,1.40
2023-10-31T09:23:02.927Z,1.60
2023-10-31T09:25:34.697Z,1.40
2023-10-31T09:28:07.356Z,1.40
2023-10-31T09:30:39.456Z,1.30
2023-10-31T09:33:11.343Z,1.80
2023-10-31T09:35:43.178Z,1.20
2023-10-31T09:38:15.241Z,1.80
2023-10-31T09:40:47.333Z,1.30
2023-10-31T09:43:19.989Z,1.50
2023-10-31T09:45:52.398Z,1.90
2023-10-31T09:48:24.380Z,1.40
2023-10-31T09:50:57.004Z,1.50
2023-10-31T09:53:29.488Z,2.00
2023-10-31T09:56:01.387Z,1.70
2023-10-31T09:58:33.791Z,1.40
2023-10-31T10:01:06.001Z,1.30
2023-10-31T10:03:38.407Z,1.20
2023-10-31T10:06:11.834Z,1.40
2023-10-31T10:08:43.586Z,1.40
2023-10-31T10:11:16.601Z,2.30
2023-10-31T10:13:48.524Z,1.40
2023-10-31T10:16:33.683Z,1.50
2023-10-31T10:19:21.669Z,1.90
2023-10-31T10:21:56.286Z,1.40
2023-10-31T10:24:28.470Z,1.80
2023-10-31T10:27:00.062Z,1.50
2023-10-31T10:29:31.933Z,1.60
2023-10-31T10:32:04.128Z,1.30
2023-10-31T10:34:36.146Z,1.70
2023-10-31T10:37:09.078Z,1.60
2023-10-31T10:39:45.260Z,1.90
2023-10-31T10:42:20.898Z,1.50
2023-10-31T10:44:56.356Z,1.80
2023-10-31T10:47:28.344Z,2.00
2023-10-31T10:50:04.067Z,1.70
2023-10-31T10:52:44.661Z,1.80
2023-10-31T10:55:23.678Z,1.50
2023-10-31T10:58:06.435Z,1.70
2023-10-31T11:00:39.067Z,1.80
2023-10-31T11:03:11.754Z,1.60
2023-10-31T11:05:44.747Z,1.60
2023-10-31T11:08:17.213Z,1.80
2023-10-31T11:10:50.333Z,2.10
2023-10-31T11:13:22.800Z,2.00
2023-10-31T11:15:59.719Z,1.40
2023-10-31T11:18:32.246Z,1.50
2023-10-31T11:21:04.194Z,1.50
2023-10-31T11:23:35.959Z,1.70
2023-10-31T11:26:11.053Z,1.60
2023-10-31T11:28:42.718Z,1.60
2023-10-31T11:31:14.716Z,1.30
2023-10-31T11:33:47.563Z,1.30
2023-10-31T11:36:21.925Z,1.50
2023-10-31T11:39:11.888Z,1.60
2023-10-31T11:41:48.097Z,1.10
2023-10-31T11:44:20.142Z,1.60
2023-10-31T11:46:54.145Z,1.40
2023-10-31T11:49:49.268Z,1.40
2023-10-31T11:52:21.738Z,1.40
2023-10-31T11:54:53.987Z,1.60
2023-10-31T11:57:32.693Z,1.60
2023-10-31T12:00:06.032Z,1.30
2023-10-31T12:02:38.097Z,1.40
2023-10-31T12:05:15.928Z,1.10
2023-10-31T12:07:48.685Z,1.40
2023-10-31T12:10:28.110Z,1.30
2023-10-31T12:13:00.874Z,1.30
2023-10-31T12:15:32.689Z,1.70
2023-10-31T12:18:04.593Z,1.40
2023-10-31T12:20:49.092Z,2.20
2023-10-31T12:23:21.319Z,1.70
2023-10-31T12:25:54.437Z,1.60
2023-10-31T12:28:29.398Z,2.00
2023-10-31T12:31:04.488Z,0.80
2023-10-31T12:36:08.169Z,1.60
2023-10-31T12:38:40.036Z,1.40
2023-10-31T12:41:11.865Z,1.80
2023-10-31T12:43:43.843Z,1.70
2023-10-31T12:46:33.551Z,1.40
2023-10-31T12:49:05.265Z,1.60
2023-10-31T12:51:37.014Z,1.70
2023-10-31T12:54:10.029Z,2.10
2023-10-31T12:56:45.599Z,1.20
2023-10-31T12:59:21.394Z,1.40
2023-10-31T13:01:53.482Z,1.50
2023-10-31T13:04:30.104Z,1.30
2023-10-31T13:07:04.454Z,1.30
2023-10-31T13:09:38.670Z,1.90
2023-10-31T13:12:12.890Z,1.40
2023-10-31T13:14:44.633Z,1.60
2023-10-31T13:17:16.364Z,1.40
2023-10-31T13:19:48.439Z,1.60
2023-10-31T13:22:19.930Z,1.00
2023-10-31T13:24:52.056Z,1.10
2023-10-31T13:27:23.828Z,1.90
2023-10-31T13:29:55.272Z,1.30
2023-10-31T13:32:26.910Z,2.50
2023-10-31T13:34:59.146Z,1.40
2023-10-31T13:37:31.222Z,1.40
2023-10-31T13:40:03.106Z,1.50
2023-10-31T13:42:34.928Z,1.50
2023-10-31T13:45:08.061Z,1.30
2023-10-31T13:47:40.335Z,1.60
2023-10-31T13:50:13.190Z,1.10
2023-10-31T13:52:44.817Z,1.30
2023-10-31T13:55:17.789Z,1.70
2023-10-31T13:57:49.693Z,1.40
2023-10-31T14:00:21.677Z,1.20
2023-10-31T14:02:53.541Z,1.10
2023-10-31T14:05:25.446Z,1.40
2023-10-31T14:07:57.134Z,1.20
2023-10-31T14:10:29.188Z,1.60
2023-10-31T14:13:00.781Z,1.40
2023-10-31T14:15:34.083Z,1.10
2023-10-31T14:18:05.846Z,1.20
2023-10-31T14:20:38.041Z,1.60
2023-10-31T14:23:09.729Z,1.50
2023-10-31T14:25:43.480Z,1.50
2023-10-31T14:28:16.251Z,1.60
2023-10-31T14:30:47.883Z,1.60
2023-10-31T14:33:19.703Z,1.50
2023-10-31T14:35:51.569Z,1.00
2023-10-31T14:38:23.443Z,1.10
2023-10-31T14:40:55.148Z,1.50
2023-10-31T14:43:26.817Z,1.20
2023-10-31T14:45:59.265Z,1.30
2023-10-31T14:48:32.238Z,1.40
2023-10-31T14:51:05.008Z,1.10
2023-10-31T14:53:36.866Z,1.60
2023-10-31T14:56:10.146Z,1.50
2023-10-31T14:58:43.601Z,1.20
2023-10-31T15:01:15.684Z,1.20
2023-10-31T15:03:47.396Z,1.60
2023-10-31T15:06:19.079Z,1.60
2023-10-31T15:08:50.792Z,1.40
2023-10-31T15:11:22.518Z,1.20
2023-10-31T15:13:54.256Z,1.60
2023-10-31T15:16:26.435Z,1.20
2023-10-31T15:18:58.157Z,1.40
2023-10-31T15:21:29.923Z,1.50
2023-10-31T15:24:01.579Z,1.40
2023-10-31T15:26:33.788Z,1.60
2023-10-31T15:29:05.491Z,2.00
2023-10-31T15:31:37.841Z,1.20
2023-10-31T15:34:09.536Z,1.30
2023-10-31T15:36:41.285Z,1.30
2023-10-31T15:39:13.482Z,1.50
2023-10-31T15:41:45.190Z,1.20
2023-10-31T15:44:16.824Z,1.40
2023-10-31T15:46:48.580Z,1.20
2023-10-31T15:49:20.497Z,1.10
2023-10-31T15:51:52.118Z,1.30
2023-10-31T15:54:23.894Z,1.50
2023-10-31T15:56:55.723Z,1.50
2023-10-31T15:59:27.366Z,1.70
2023-10-31T16:01:59.186Z,1.80
2023-10-31T16:04:30.786Z,1.70
2023-10-31T16:07:02.700Z,2.20
2023-10-31T16:09:34.299Z,1.90
2023-10-31T16:12:08.269Z,1.90
2023-10-31T16:14:39.978Z,2.50
2023-10-31T16:17:11.617Z,2.20
2023-10-31T16:19:43.260Z,1.60
2023-10-31T16:22:14.928Z,2.00
2023-10-31T16:24:46.711Z,2.00
2023-10-31T16:27:18.794Z,2.00
2023-10-31T16:29:50.400Z,1.90
2023-10-31T16:32:22.205Z,1.80
2023-10-31T16:34:54.709Z,2.00
2023-10-31T16:37:26.482Z,1.80
2023-10-31T16:39:58.347Z,2.00
2023-10-31T16:42:33.537Z,2.00
2023-10-31T16:45:07.125Z,1.80
2023-10-31T16:47:39.600Z,1.80
2023-10-31T16:50:14.058Z,1.80
2023-10-31T16:52:46.688Z,2.00
2023-10-31T16:55:18.305Z,1.90
2023-10-31T16:57:50.005Z,2.10
2023-10-31T17:00:23.162Z,2.40
2023-10-31T17:02:55.047Z,2.90
2023-10-31T17:05:27.050Z,2.20
2023-10-31T17:07:59.117Z,2.50
2023-10-31T17:10:30.834Z,2.70
2023-10-31T17:13:02.627Z,2.10
2023-10-31T17:15:34.425Z,2.50
2023-10-31T17:18:07.348Z,2.20
2023-10-31T17:20:39.767Z,2.80
2023-10-31T17:23:11.847Z,3.10
2023-10-31T17:25:43.642Z,2.90
2023-10-31T17:28:17.223Z,2.00
2023-10-31T17:30:49.276Z,2.00
2023-10-31T17:33:21.155Z,3.00
2023-10-31T17:35:52.969Z,2.60
2023-10-31T17:38:25.095Z,2.90
2023-10-31T17:40:57.659Z,2.40
2023-10-31T17:43:30.020Z,2.30
2023-10-31T17:46:01.789Z,2.30
2023-10-31T17:48:33.730Z,3.80
2023-10-31T17:51:06.230Z,3.80
2023-10-31T17:53:40.398Z,3.10
2023-10-31T17:56:12.363Z,2.30
2023-10-31T17:58:44.228Z,2.60
2023-10-31T18:01:15.926Z,2.40
2023-10-31T18:03:47.704Z,3.00
2023-10-31T18:06:19.518Z,2.40
2023-10-31T18:08:51.399Z,2.80
2023-10-31T18:11:23.137Z,2.70
2023-10-31T18:13:54.980Z,2.70
2023-10-31T18:16:26.570Z,3.00
2023-10-31T18:18:58.427Z,3.10
2023-10-31T18:21:30.962Z,3.60
2023-10-31T18:24:03.628Z,3.80
2023-10-31T18:26:35.290Z,3.40
2023-10-31T18:29:07.663Z,3.20
2023-10-31T18:31:40.715Z,3.70
2023-10-31T18:34:12.626Z,2.90
2023-10-31T18:36:44.222Z,3.60
2023-10-31T18:39:16.018Z,3.30
2023-10-31T18:41:59.654Z,3.40
2023-10-31T18:44:46.597Z,3.10
2023-10-31T18:47:24.745Z,3.10
2023-10-31T18:49:57.980Z,3.40
2023-10-31T18:52:29.906Z,2.60
2023-10-31T18:55:01.964Z,3.10
2023-10-31T18:57:33.970Z,2.70
2023-10-31T19:00:08.656Z,2.40
2023-10-31T19:02:40.712Z,1.80
2023-10-31T19:05:14.270Z,2.40
2023-10-31T19:07:47.243Z,2.10
2023-10-31T19:10:20.010Z,2.30
2023-10-31T19:12:51.613Z,2.70
2023-10-31T19:15:23.916Z,2.70
2023-10-31T19:17:55.772Z,3.00
2023-10-31T19:20:28.746Z,3.20
2023-10-31T19:23:01.899Z,2.30
2023-10-31T19:25:33.715Z,2.60
2023-10-31T19:28:05.930Z,3.00
2023-10-31T19:30:40.548Z,2.20
2023-10-31T19:33:12.247Z,2.60
2023-10-31T19:35:43.985Z,2.20
2023-10-31T19:38:16.137Z,3.60
2023-10-31T19:40:48.315Z,2.40
2023-10-31T19:43:20.043Z,2.20
2023-10-31T19:45:51.956Z,2.60
2023-10-31T19:48:23.637Z,2.50
2023-10-31T19:50:55.678Z,2.50
2023-10-31T19:53:27.407Z,2.40
2023-10-31T19:55:59.298Z,1.90
2023-10-31T19:58:30.893Z,2.30
2023-10-31T20:01:02.679Z,2.30
2023-10-31T20:03:34.419Z,2.30
2023-10-31T20:06:08.057Z,3.40
2023-10-31T20:08:39.913Z,1.80
2023-10-31T20:11:12.769Z,2.20
2023-10-31T20:13:44.970Z,3.10
2023-10-31T20:16:17.338Z,2.20
2023-10-31T20:18:48.888Z,2.50
2023-10-31T20:21:21.292Z,2.10
2023-10-31T20:23:53.216Z,2.30
2023-10-31T20:26:25.067Z,1.80
2023-10-31T20:28:56.823Z,2.20
2023-10-31T20:31:28.596Z,1.90
2023-10-31T20:34:00.252Z,2.10
2023-10-31T20:36:31.955Z,2.10
2023-10-31T20:39:03.840Z,2.00
2023-10-31T20:41:37.061Z,1.60
2023-10-31T20:44:09.026Z,2.10
2023-10-31T20:46:41.561Z,2.70
2023-10-31T20:49:13.468Z,2.00
2023-10-31T20:51:46.263Z,2.60
2023-10-31T20:54:17.942Z,2.40
2023-10-31T20:56:49.676Z,3.00
2023-10-31T20:59:21.371Z,2.80
2023-10-31T21:01:53.231Z,2.70
2023-10-31T21:04:26.282Z,2.30
2023-10-31T21:07:00.459Z,2.90
2023-10-31T21:09:32.055Z,2.80
2023-10-31T21:12:04.514Z,3.40
2023-10-31T21:14:36.498Z,3.30
2023-10-31T21:17:08.647Z,1.90
2023-10-31T21:19:40.516Z,3.50
2023-10-31T21:22:12.630Z,2.30
2023-10-31T21:24:44.365Z,2.10
2023-10-31T21:27:16.489Z,2.40
2023-10-31T21:29:48.157Z,2.80
2023-10-31T21:32:19.915Z,2.60
2023-10-31T21:34:52.046Z,2.30
2023-10-31T21:37:24.515Z,3.20
2023-10-31T21:39:56.211Z,2.60
2023-10-31T21:42:28.148Z,1.80
2023-10-31T21:45:01.503Z,2.50
2023-10-31T21:47:33.282Z,2.20
2023-10-31T21:50:05.778Z,2.90
2023-10-31T21:52:37.831Z,3.00
2023-10-31T21:55:11.788Z,2.50
2023-10-31T21:57:43.637Z,2.50
2023-10-31T22:00:17.773Z,2.30
2023-10-31T22:02:49.830Z,2.70
2023-10-31T22:05:22.180Z,2.90
2023-10-31T22:07:53.992Z,2.70
2023-10-31T22:10:25.809Z,2.90
2023-10-31T22:12:57.636Z,1.80
2023-10-31T22:15:29.378Z,1.90
2023-10-31T22:18:01.263Z,2.60
2023-10-31T22:20:33.239Z,1.80
2023-10-31T22:23:05.516Z,2.40
2023-10-31T22:25:37.160Z,2.30
2023-10-31T22:28:09.037Z,1.90
2023-10-31T22:30:40.603Z,2.30
2023-10-31T22:33:13.112Z,2.20
2023-10-31T22:35:44.899Z,2.30
2023-10-31T22:38:16.586Z,2.30
2023-10-31T22:40:48.511Z,2.10
2023-10-31T22:43:20.703Z,2.30
2023-10-31T22:45:52.375Z,2.40
2023-10-31T22:48:24.396Z,2.30
2023-10-31T22:50:55.967Z,1.50
2023-10-31T22:53:31.309Z,2.00
2023-10-31T22:56:03.993Z,1.90
2023-10-31T22:58:36.083Z,1.80
2023-10-31T23:01:09.346Z,1.90
2023-10-31T23:03:41.159Z,1.90
2023-10-31T23:06:12.989Z,2.10
2023-10-31T23:08:44.816Z,1.70
2023-10-31T23:11:16.627Z,2.20
2023-10-31T23:13:48.614Z,1.90
2023-10-31T23:16:20.491Z,1.80
2023-10-31T23:18:52.287Z,1.60
2023-10-31T23:21:24.365Z,2.30
2023-10-31T23:23:56.248Z,2.00
2023-10-31T23:26:28.106Z,1.80
2023-10-31T23:29:01.020Z,1.90
2023-10-31T23:31:32.897Z,2.30
2023-10-31T23:34:05.243Z,2.40
2023-10-31T23:36:36.871Z,2.70
2023-10-31T23:39:08.923Z,2.40
2023-10-31T23:41:41.212Z,2.50
2023-10-31T23:44:13.093Z,2.00
2023-10-31T23:46:44.822Z,2.40
2023-10-31T23:49:16.314Z,1.20
2023-10-31T23:51:48.114Z,1.90
2023-10-31T23:54:19.966Z,2.20
2023-10-31T23:56:51.753Z,1.80
2023-10-31T23:59:23.933Z,1.70
